Time;durP1;ratioP1;P1;durP2;ratioP2;P2;SDS_P1;SDS_P2;PMS_P1;PMS_P2;Temp;Humidity;BMP_temperature;BMP_pressure;BME280_temperature;BME280_humidity;BME280_pressure;Samples;Min_cycle;Max_cycle;Signal;HPM_P1;HPM_P2
2022/09/07 00:02:04;;;;;;;7.60;3.27;;;17.90;1.00;;;;;;5150859;27;20517;-78
2022/09/07 00:04:32;;;;;;;6.93;3.00;;;17.90;1.00;;;;;;5141179;27;20578;-80
2022/09/07 00:07:05;;;;;;;6.60;2.87;;;17.90;1.00;;;;;;5125546;27;20452;-78
2022/09/07 00:09:43;;;;;;;6.90;2.90;;;17.90;1.00;;;;;;5155948;27;20501;-79
2022/09/07 00:12:12;;;;;;;5.43;2.40;;;17.80;1.00;;;;;;5117222;27;20467;-80
2022/09/07 00:14:42;;;;;;;8.33;2.40;;;17.70;1.00;;;;;;5110974;27;20817;-80
2022/09/07 00:17:15;;;;;;;5.97;2.70;;;17.70;1.00;;;;;;5126187;27;20414;-76
2022/09/07 00:19:42;;;;;;;6.33;2.90;;;17.50;1.00;;;;;;5123906;27;20628;-82
2022/09/07 00:22:13;;;;;;;7.60;2.80;;;17.40;1.00;;;;;;5124183;27;20423;-79
2022/09/07 00:24:46;;;;;;;7.60;2.73;;;17.40;1.00;;;;;;5126326;27;20539;-77
2022/09/07 00:27:15;;;;;;;5.93;2.20;;;17.40;1.00;;;;;;5132738;27;20416;-80
2022/09/07 00:29:42;;;;;;;7.27;2.60;;;17.40;1.00;;;;;;5140692;27;20457;-80
2022/09/07 00:32:25;;;;;;;7.60;3.17;;;17.40;1.00;;;;;;5114201;27;20481;-80
2022/09/07 00:35:12;;;;;;;6.60;3.10;;;17.40;1.00;;;;;;5132876;27;20488;-78
2022/09/07 00:37:39;;;;;;;6.23;2.47;;;17.30;1.00;;;;;;5121357;27;20472;-79
2022/09/07 00:40:16;;;;;;;6.23;3.03;;;17.30;1.00;;;;;;5139116;27;20473;-79
2022/09/07 00:42:44;;;;;;;5.50;2.17;;;17.30;1.00;;;;;;5136310;27;20490;-80
2022/09/07 00:45:16;;;;;;;7.47;2.73;;;17.30;1.00;;;;;;5130191;27;20417;-79
2022/09/07 00:48:00;;;;;;;6.53;2.83;;;17.30;1.00;;;;;;5137561;27;20474;-78
2022/09/07 00:50:35;;;;;;;5.43;2.07;;;17.30;1.00;;;;;;5122878;27;20950;-80
2022/09/07 00:53:14;;;;;;;5.87;2.40;;;17.20;1.00;;;;;;5138269;27;21046;-79
2022/09/07 00:55:46;;;;;;;7.03;2.90;;;17.20;1.00;;;;;;5136572;27;20567;-77
2022/09/07 00:58:18;;;;;;;6.50;2.23;;;17.20;1.00;;;;;;5136452;27;20441;-80
2022/09/07 01:00:48;;;;;;;6.53;2.70;;;17.20;1.00;;;;;;5129787;27;20545;-77
2022/09/07 01:08:53;;;;;;;5.83;2.50;;;17.10;1.00;;;;;;5028138;28;20540;-81
2022/09/07 01:11:24;;;;;;;7.47;2.80;;;17.10;1.00;;;;;;5013730;28;20669;-81
2022/09/07 01:14:02;;;;;;;6.30;2.70;;;17.00;1.00;;;;;;5036784;28;20450;-79
2022/09/07 01:17:06;;;;;;;6.03;2.53;;;16.90;1.00;;;;;;5037616;28;20452;-81
2022/09/07 01:20:23;;;;;;;9.27;3.07;;;16.90;1.00;;;;;;5039432;28;20541;-80
2022/09/07 01:23:23;;;;;;;8.43;3.53;;;16.80;1.00;;;;;;4976960;28;20465;-78
2022/09/07 01:26:08;;;;;;;7.20;2.37;;;16.80;1.00;;;;;;5031332;28;20441;-81
2022/09/07 01:28:56;;;;;;;7.90;3.00;;;16.70;1.00;;;;;;5036279;28;20425;-80
2022/09/07 01:31:31;;;;;;;5.93;2.53;;;16.70;1.00;;;;;;5030228;28;21260;-78
2022/09/07 01:34:08;;;;;;;8.10;3.30;;;16.70;1.00;;;;;;5020810;28;20630;-79
2022/09/07 01:36:48;;;;;;;9.73;2.90;;;16.60;1.00;;;;;;5055463;28;20563;-81
2022/09/07 01:39:15;;;;;;;10.43;2.60;;;16.60;1.00;;;;;;5051891;28;22212;-79
2022/09/07 01:41:52;;;;;;;8.00;2.37;;;16.50;1.00;;;;;;5044858;28;20464;-81
2022/09/07 01:44:26;;;;;;;6.13;2.53;;;16.50;1.00;;;;;;5049209;28;20468;-79
2022/09/07 01:47:03;;;;;;;6.50;2.70;;;16.50;1.00;;;;;;5053956;28;20426;-84
2022/09/07 01:49:43;;;;;;;6.73;2.87;;;16.50;1.00;;;;;;5055904;28;20437;-83
2022/09/07 01:52:21;;;;;;;9.63;2.73;;;16.40;1.00;;;;;;5053647;28;20438;-79
2022/09/07 01:55:03;;;;;;;7.80;2.40;;;16.40;1.00;;;;;;5057648;28;20425;-80
2022/09/07 01:57:44;;;;;;;8.40;2.60;;;16.40;1.00;;;;;;5060559;28;20460;-83
2022/09/07 02:00:42;;;;;;;7.20;2.80;;;16.40;1.00;;;;;;5059441;28;20465;-79
2022/09/07 02:03:15;;;;;;;7.00;2.80;;;16.30;1.00;;;;;;5055287;28;20511;-79
2022/09/07 02:05:57;;;;;;;7.00;2.67;;;16.30;1.00;;;;;;5052945;28;20484;-77
2022/09/07 02:08:32;;;;;;;7.60;2.80;;;16.30;1.00;;;;;;5051296;28;20868;-79
2022/09/07 02:11:10;;;;;;;7.63;2.70;;;16.20;1.00;;;;;;5050006;28;20425;-79
2022/09/07 02:13:47;;;;;;;6.90;2.70;;;16.20;1.00;;;;;;5053373;28;20463;-80
2022/09/07 02:16:23;;;;;;;9.17;2.73;;;16.10;1.00;;;;;;5026899;28;20479;-79
2022/09/07 02:18:53;;;;;;;7.53;2.80;;;16.10;1.00;;;;;;5054346;28;20452;-77
2022/09/07 02:21:27;;;;;;;6.67;2.90;;;16.10;1.00;;;;;;5046135;28;20579;-78
2022/09/07 02:24:04;;;;;;;8.20;3.13;;;16.00;1.00;;;;;;5031622;28;20850;-78
2022/09/07 02:26:43;;;;;;;7.03;2.97;;;16.00;1.00;;;;;;5030895;28;20459;-79
2022/09/07 02:29:16;;;;;;;7.60;2.70;;;16.00;1.00;;;;;;5041466;28;20535;-79
2022/09/07 02:31:46;;;;;;;8.57;2.60;;;16.00;1.00;;;;;;5048797;28;20472;-77
2022/09/07 02:34:14;;;;;;;8.30;2.87;;;16.00;1.00;;;;;;5039520;28;20472;-79
2022/09/07 02:36:48;;;;;;;7.23;3.10;;;16.00;1.00;;;;;;5050767;28;20464;-78
2022/09/07 02:39:15;;;;;;;8.60;2.70;;;16.00;1.00;;;;;;5049433;28;21026;-78
2022/09/07 02:41:43;;;;;;;9.53;3.10;;;16.00;1.00;;;;;;5049812;28;20476;-79
2022/09/07 02:44:18;;;;;;;9.37;3.40;;;16.00;1.00;;;;;;5056628;28;20492;-78
2022/09/07 02:47:11;;;;;;;6.00;2.90;;;16.00;1.00;;;;;;5050148;28;21383;-78
2022/09/07 02:50:17;;;;;;;6.77;2.80;;;15.90;1.00;;;;;;5046632;28;20449;-78
2022/09/07 02:52:59;;;;;;;9.87;3.00;;;15.80;1.00;;;;;;4976896;28;20456;-80
2022/09/07 02:55:35;;;;;;;6.50;4.50;;;15.80;1.00;;;;;;4974566;28;20458;-81
2022/09/07 02:58:14;;;;;;;11.10;3.70;;;15.70;1.00;;;;;;5023210;28;20459;-79
2022/09/07 03:00:55;;;;;;;16.27;3.13;;;15.70;1.00;;;;;;5046862;28;20936;-78
2022/09/07 03:03:38;;;;;;;9.33;3.80;;;15.70;1.00;;;;;;5033238;28;20551;-80
2022/09/07 03:06:12;;;;;;;9.00;2.97;;;15.60;1.00;;;;;;5051217;28;20468;-79
2022/09/07 03:08:44;;;;;;;9.43;4.10;;;15.60;1.00;;;;;;5052251;28;20464;-81
2022/09/07 03:11:12;;;;;;;8.90;3.50;;;15.50;1.00;;;;;;5038786;28;20452;-79
2022/09/07 03:13:42;;;;;;;8.50;3.27;;;15.50;1.00;;;;;;5056120;28;20475;-78
2022/09/07 03:16:16;;;;;;;7.40;3.27;;;15.60;1.00;;;;;;5041786;28;20461;-79
2022/09/07 03:18:50;;;;;;;9.80;3.40;;;15.60;1.00;;;;;;5038977;28;20464;-79
2022/09/07 03:21:19;;;;;;;6.63;2.80;;;15.50;1.00;;;;;;5035770;28;20454;-80
2022/09/07 03:23:46;;;;;;;9.70;3.60;;;15.50;1.00;;;;;;5049085;28;20500;-79
2022/09/07 03:26:23;;;;;;;9.27;4.13;;;15.50;1.00;;;;;;5046289;28;20476;-80
2022/09/07 03:28:53;;;;;;;8.13;3.40;;;15.50;1.00;;;;;;5054881;28;20476;-79
2022/09/07 03:31:21;;;;;;;8.40;3.50;;;15.50;1.00;;;;;;5053575;28;20437;-78
2022/09/07 03:33:54;;;;;;;12.20;4.17;;;15.40;1.00;;;;;;5051486;28;20440;-78
2022/09/07 03:36:22;;;;;;;13.00;4.07;;;15.40;1.00;;;;;;5050250;28;20448;-78
2022/09/07 03:38:53;;;;;;;7.47;2.80;;;15.40;1.00;;;;;;5051206;28;20468;-80
2022/09/07 03:41:20;;;;;;;9.07;4.10;;;15.30;1.00;;;;;;5041610;28;21570;-80
2022/09/07 03:43:54;;;;;;;9.17;4.90;;;15.30;1.00;;;;;;5053378;28;20961;-78
2022/09/07 03:46:21;;;;;;;11.93;4.10;;;15.40;1.00;;;;;;5049768;28;20472;-78
2022/09/07 03:48:55;;;;;;;10.50;4.27;;;15.40;1.00;;;;;;5042096;28;20480;-80
2022/09/07 03:51:23;;;;;;;11.60;3.40;;;15.30;1.00;;;;;;5031318;28;20457;-79
2022/09/07 03:53:52;;;;;;;8.77;3.83;;;15.30;1.00;;;;;;5051468;28;20447;-78
2022/09/07 03:56:22;;;;;;;10.73;3.47;;;15.20;1.00;;;;;;5049639;28;20523;-78
2022/09/07 03:58:51;;;;;;;9.73;3.90;;;15.20;1.00;;;;;;5047824;28;20534;-80
2022/09/07 04:01:20;;;;;;;8.20;4.00;;;15.20;1.00;;;;;;5050852;28;21054;-79
2022/09/07 04:03:50;;;;;;;9.63;3.67;;;15.20;1.00;;;;;;5054646;28;20468;-78
2022/09/07 04:06:27;;;;;;;10.97;6.40;;;15.20;1.00;;;;;;5051009;28;20487;-79
2022/09/07 04:08:56;;;;;;;10.37;3.70;;;15.20;1.00;;;;;;5043936;28;20497;-80
2022/09/07 04:11:23;;;;;;;9.93;3.60;;;15.20;1.00;;;;;;5053614;28;20483;-78
2022/09/07 04:13:50;;;;;;;10.00;3.60;;;15.10;1.00;;;;;;5036213;28;21320;-77
2022/09/07 04:16:20;;;;;;;7.80;3.50;;;15.00;1.00;;;;;;5037186;28;20842;-80
2022/09/07 04:18:53;;;;;;;9.03;4.00;;;15.00;1.00;;;;;;5055964;28;20458;-77
2022/09/07 04:21:22;;;;;;;8.53;4.40;;;14.90;1.00;;;;;;5041769;28;20492;-78
2022/09/07 04:23:55;;;;;;;8.60;4.13;;;14.90;1.00;;;;;;5054051;28;20878;-80
2022/09/07 04:26:24;;;;;;;8.60;3.60;;;14.90;1.00;;;;;;5033151;28;20508;-80
2022/09/07 04:28:52;;;;;;;6.97;3.57;;;14.90;1.00;;;;;;5052541;28;20429;-79
2022/09/07 04:31:19;;;;;;;9.70;3.80;;;14.90;1.00;;;;;;5049944;28;22357;-78
2022/09/07 04:33:50;;;;;;;7.57;3.10;;;14.90;1.00;;;;;;5038156;28;20521;-79
2022/09/07 04:36:24;;;;;;;10.73;3.83;;;14.90;1.00;;;;;;5052891;28;20429;-80
2022/09/07 04:39:00;;;;;;;8.93;4.00;;;15.00;1.00;;;;;;5059561;28;20429;-81
2022/09/07 04:41:35;;;;;;;9.40;4.10;;;14.90;1.00;;;;;;5033461;28;20503;-82
2022/09/07 04:44:11;;;;;;;9.20;4.20;;;15.00;1.00;;;;;;5062131;28;20420;-82
2022/09/07 04:46:41;;;;;;;12.50;4.47;;;15.00;1.00;;;;;;5067055;28;20420;-80
2022/09/07 04:49:12;;;;;;;8.13;4.00;;;15.00;1.00;;;;;;5060840;28;20420;-84
2022/09/07 04:51:43;;;;;;;10.07;3.90;;;15.10;1.00;;;;;;5058074;28;20408;-84
2022/09/07 04:54:16;;;;;;;12.83;4.63;;;15.10;1.00;;;;;;5062282;28;20506;-83
2022/09/07 04:56:44;;;;;;;10.40;3.60;;;15.10;1.00;;;;;;5057324;28;20455;-77
2022/09/07 04:59:14;;;;;;;7.70;3.83;;;15.10;1.00;;;;;;5050709;28;20835;-75
2022/09/07 05:01:41;;;;;;;9.40;4.10;;;15.00;1.00;;;;;;5046805;28;20461;-77
2022/09/07 05:04:09;;;;;;;10.50;3.93;;;15.00;1.00;;;;;;5045206;28;20558;-78
2022/09/07 05:06:39;;;;;;;7.50;3.80;;;14.90;1.00;;;;;;5048817;28;20572;-77
2022/09/07 05:09:11;;;;;;;14.20;8.07;;;14.90;1.00;;;;;;5049884;28;20471;-78
2022/09/07 05:11:41;;;;;;;8.63;4.10;;;14.80;1.00;;;;;;5039076;28;21307;-77
2022/09/07 05:14:10;;;;;;;10.33;3.97;;;14.90;1.00;;;;;;5049828;28;20476;-77
2022/09/07 05:16:38;;;;;;;8.90;3.97;;;14.90;1.00;;;;;;5053364;28;20426;-77
2022/09/07 05:19:05;;;;;;;10.57;4.83;;;15.00;1.00;;;;;;5044275;28;20971;-76
2022/09/07 05:21:35;;;;;;;9.87;3.70;;;15.00;1.00;;;;;;5046917;28;21038;-78
2022/09/07 05:24:03;;;;;;;8.60;3.40;;;15.00;1.00;;;;;;5035153;28;20441;-78
2022/09/07 05:26:38;;;;;;;7.33;3.87;;;15.10;1.00;;;;;;5047853;28;20421;-78
2022/09/07 05:29:06;;;;;;;9.23;4.07;;;15.10;1.00;;;;;;5045028;28;20472;-77
2022/09/07 05:31:34;;;;;;;9.10;3.93;;;15.10;1.00;;;;;;5040203;28;20540;-77
2022/09/07 05:34:02;;;;;;;15.27;5.53;;;15.10;1.00;;;;;;5021760;28;20436;-77
2022/09/07 05:36:29;;;;;;;10.90;4.13;;;15.20;1.00;;;;;;5049296;28;20424;-72
2022/09/07 05:38:58;;;;;;;10.00;4.30;;;15.30;1.00;;;;;;5043976;28;20553;-69
2022/09/07 05:41:27;;;;;;;9.30;3.97;;;15.40;1.00;;;;;;5043999;28;21007;-70
2022/09/07 05:44:00;;;;;;;10.10;4.80;;;15.50;1.00;;;;;;5045979;28;20626;-71
2022/09/07 05:46:27;;;;;;;8.03;4.60;;;15.60;1.00;;;;;;5041585;28;21076;-70
2022/09/07 05:48:56;;;;;;;12.20;5.30;;;15.70;1.00;;;;;;5046879;28;20924;-71
2022/09/07 05:51:23;;;;;;;10.70;5.60;;;15.80;1.00;;;;;;5037915;28;20469;-70
2022/09/07 05:53:50;;;;;;;9.17;4.50;;;15.90;1.00;;;;;;5050242;28;20559;-74
2022/09/07 05:56:18;;;;;;;10.80;4.93;;;15.90;1.00;;;;;;5042770;28;20485;-72
2022/09/07 05:58:48;;;;;;;12.90;5.40;;;15.90;1.00;;;;;;5046079;28;20461;-70
2022/09/07 06:01:21;;;;;;;10.03;4.90;;;15.90;1.00;;;;;;5047323;28;20424;-79
2022/09/07 06:03:48;;;;;;;9.50;5.50;;;15.90;1.00;;;;;;5042894;28;20460;-79
2022/09/07 06:06:18;;;;;;;10.00;4.63;;;15.90;1.00;;;;;;5025703;28;20457;-81
2022/09/07 06:08:47;;;;;;;10.30;4.83;;;15.90;1.00;;;;;;5041467;28;20556;-81
2022/09/07 06:11:19;;;;;;;9.90;4.40;;;15.80;1.00;;;;;;5027122;28;20535;-80
2022/09/07 06:13:46;;;;;;;11.30;4.80;;;15.90;1.00;;;;;;5032692;28;20886;-79
2022/09/07 06:16:23;;;;;;;9.50;5.07;;;16.00;1.00;;;;;;5026269;28;20466;-79
2022/09/07 06:18:51;;;;;;;9.20;4.10;;;16.00;1.00;;;;;;5032513;28;20468;-79
2022/09/07 06:21:27;;;;;;;9.80;4.27;;;15.90;1.00;;;;;;5031258;28;20857;-79
2022/09/07 06:24:00;;;;;;;10.53;4.73;;;15.90;1.00;;;;;;5029075;28;20555;-78
2022/09/07 06:26:28;;;;;;;8.07;4.70;;;16.00;1.00;;;;;;5023680;28;20454;-80
2022/09/07 06:28:59;;;;;;;9.90;5.47;;;16.10;1.00;;;;;;5032747;28;20463;-80
2022/09/07 06:31:26;;;;;;;9.10;4.67;;;16.30;1.00;;;;;;5024675;28;20549;-80
2022/09/07 06:34:00;;;;;;;10.03;4.80;;;16.40;1.00;;;;;;5026130;28;20496;-78
2022/09/07 06:36:28;;;;;;;9.10;4.30;;;16.50;1.00;;;;;;5022766;28;21002;-80
2022/09/07 06:39:01;;;;;;;12.50;4.70;;;16.60;1.00;;;;;;5028454;28;20973;-81
2022/09/07 06:41:30;;;;;;;15.37;5.87;;;16.60;1.00;;;;;;5013601;28;20456;-81
2022/09/07 06:44:00;;;;;;;10.67;4.60;;;16.80;1.00;;;;;;5033672;28;21315;-80
2022/09/07 06:46:29;;;;;;;14.73;4.90;;;16.90;1.00;;;;;;5011356;28;20473;-79
2022/09/07 06:49:00;;;;;;;9.73;4.53;;;17.10;1.00;;;;;;5029196;28;20417;-82
2022/09/07 06:51:27;;;;;;;12.33;4.70;;;17.30;1.00;;;;;;5031606;28;20453;-77
2022/09/07 06:54:01;;;;;;;10.40;4.53;;;17.30;1.00;;;;;;5030447;28;20531;-78
2022/09/07 06:56:28;;;;;;;11.83;5.27;;;17.30;1.00;;;;;;5033762;28;20460;-81
2022/09/07 06:58:58;;;;;;;9.90;4.97;;;17.50;1.00;;;;;;5025409;28;20973;-81
2022/09/07 07:01:26;;;;;;;8.90;4.33;;;17.70;1.00;;;;;;5020208;28;20465;-81
2022/09/07 07:03:54;;;;;;;10.73;5.03;;;17.80;1.00;;;;;;5030656;28;20484;-81
2022/09/07 07:06:24;;;;;;;9.30;4.23;;;17.90;1.00;;;;;;5031484;28;21429;-81
2022/09/07 07:09:04;;;;;;;10.20;5.27;;;17.90;1.00;;;;;;5041832;28;20503;-81
2022/09/07 07:11:30;;;;;;;11.73;4.93;;;17.90;1.00;;;;;;5048749;28;20475;-79
2022/09/07 07:14:01;;;;;;;12.87;5.53;;;17.90;1.00;;;;;;5038007;28;20511;-81
2022/09/07 07:16:30;;;;;;;9.07;4.70;;;18.00;1.00;;;;;;5047847;28;20863;-79
2022/09/07 07:19:00;;;;;;;8.23;4.60;;;18.00;1.00;;;;;;5042733;28;20428;-79
2022/09/07 07:21:28;;;;;;;13.10;5.30;;;18.00;1.00;;;;;;5036957;28;20510;-82
2022/09/07 07:24:02;;;;;;;9.40;5.17;;;18.00;1.00;;;;;;5047991;28;20419;-81
2022/09/07 07:26:29;;;;;;;11.23;4.90;;;18.00;1.00;;;;;;5039893;28;20464;-81
2022/09/07 07:29:07;;;;;;;9.40;4.93;;;18.00;1.00;;;;;;5049857;28;20420;-78
2022/09/07 07:31:35;;;;;;;10.87;5.00;;;18.00;1.00;;;;;;5051016;28;20538;-80
2022/09/07 07:34:02;;;;;;;16.70;6.07;;;18.00;1.00;;;;;;5055956;28;20442;-81
2022/09/07 07:36:31;;;;;;;11.30;5.13;;;18.20;1.00;;;;;;5052076;28;20457;-81
2022/09/07 07:38:59;;;;;;;8.10;4.97;;;18.40;1.00;;;;;;5041306;28;20507;-82
2022/09/07 07:41:32;;;;;;;10.40;5.57;;;18.70;1.00;;;;;;5049274;28;20815;-80
2022/09/07 07:44:00;;;;;;;9.33;5.30;;;18.90;1.00;;;;;;5051135;28;20542;-82
2022/09/07 07:46:43;;;;;;;8.47;4.57;;;19.00;1.00;;;;;;5054485;28;20410;-81
2022/09/07 07:49:13;;;;;;;9.03;5.20;;;19.10;1.00;;;;;;5058183;28;21005;-79
2022/09/07 07:51:43;;;;;;;12.13;5.50;;;19.40;1.00;;;;;;5058103;28;21681;-81
2022/09/07 07:54:17;;;;;;;8.90;5.67;;;19.70;1.00;;;;;;5058759;28;20471;-81
2022/09/07 07:56:43;;;;;;;9.47;5.53;;;19.80;1.00;;;;;;5063496;28;20455;-79
2022/09/07 07:59:13;;;;;;;8.73;5.30;;;19.90;1.00;;;;;;5060023;28;21368;-80
2022/09/07 08:01:39;;;;;;;11.27;5.10;;;19.90;1.00;;;;;;5059175;28;20480;-80
2022/09/07 08:04:07;;;;;;;9.47;6.10;;;19.90;1.00;;;;;;5057184;28;20437;-81
2022/09/07 08:06:37;;;;;;;13.40;5.70;;;19.90;1.00;;;;;;5056851;28;20432;-81
2022/09/07 08:09:07;;;;;;;10.97;5.50;;;20.00;1.00;;;;;;5060663;28;20488;-80
2022/09/07 08:11:34;;;;;;;10.30;5.90;;;20.00;1.00;;;;;;5057838;28;20610;-80
2022/09/07 08:14:04;;;;;;;12.37;5.77;;;19.90;1.00;;;;;;5060295;28;20900;-80
2022/09/07 08:16:33;;;;;;;9.63;5.30;;;20.10;1.00;;;;;;5060264;28;20445;-80
2022/09/07 08:19:00;;;;;;;7.63;5.20;;;20.40;1.00;;;;;;5052569;28;20883;-78
2022/09/07 08:21:30;;;;;;;14.70;6.40;;;20.50;1.00;;;;;;5053736;28;20447;-77
2022/09/07 08:23:58;;;;;;;11.80;5.53;;;20.70;1.00;;;;;;5054738;28;20880;-78
2022/09/07 08:26:31;;;;;;;9.80;5.00;;;20.80;1.00;;;;;;5049801;28;20425;-77
2022/09/07 08:28:58;;;;;;;9.87;5.73;;;20.80;1.00;;;;;;5050373;28;20855;-79
2022/09/07 08:31:29;;;;;;;16.13;6.60;;;20.90;1.00;;;;;;5056720;28;20479;-80
2022/09/07 08:33:56;;;;;;;11.77;5.57;;;21.00;1.00;;;;;;5060631;28;20467;-79
2022/09/07 08:36:23;;;;;;;12.50;6.40;;;21.00;1.00;;;;;;5057663;28;20951;-77
2022/09/07 08:38:51;;;;;;;11.90;5.40;;;21.20;1.00;;;;;;5057767;28;20444;-77
2022/09/07 08:41:54;;;;;;;12.17;5.90;;;21.30;1.00;;;;;;5051783;28;20433;-79
2022/09/07 08:44:28;;;;;;;10.40;5.93;;;21.50;1.00;;;;;;5046355;28;20973;-76
2022/09/07 08:46:59;;;;;;;11.10;5.90;;;21.70;1.00;;;;;;5046964;28;20461;-78
2022/09/07 08:49:41;;;;;;;12.07;6.70;;;21.70;1.00;;;;;;5052570;28;20468;-78
2022/09/07 08:52:13;;;;;;;9.20;6.80;;;21.80;1.00;;;;;;5053516;28;20563;-79
2022/09/07 08:54:46;;;;;;;11.67;6.67;;;21.90;1.00;;;;;;5049328;28;20492;-78
2022/09/07 08:57:20;;;;;;;9.53;6.13;;;22.10;1.00;;;;;;5045151;28;20468;-80
2022/09/07 09:00:00;;;;;;;13.83;6.00;;;22.10;1.00;;;;;;5049934;28;20488;-77
2022/09/07 09:02:28;;;;;;;8.73;5.23;;;22.30;1.00;;;;;;5049695;28;20452;-78
2022/09/07 09:04:55;;;;;;;11.30;6.70;;;22.50;1.00;;;;;;5050535;28;20471;-78
2022/09/07 09:07:33;;;;;;;18.70;9.93;;;22.80;1.00;;;;;;5052851;28;20428;-80
2022/09/07 09:10:22;;;;;;;9.73;5.80;;;22.90;1.00;;;;;;5051418;28;20467;-79
2022/09/07 09:13:00;;;;;;;12.00;6.73;;;23.10;1.00;;;;;;5053040;28;20914;-79
2022/09/07 09:15:47;;;;;;;8.80;5.87;;;23.40;1.00;;;;;;5053955;28;20472;-79
2022/09/07 09:18:38;;;;;;;12.93;8.80;;;23.50;1.00;;;;;;5034727;28;20456;-79
2022/09/07 09:21:11;;;;;;;10.27;6.50;;;24.00;1.00;;;;;;5049411;28;20484;-80
2022/09/07 09:23:42;;;;;;;10.50;6.30;;;24.40;1.00;;;;;;5034329;28;20917;-79
2022/09/07 09:26:32;;;;;;;10.53;6.53;;;25.50;1.00;;;;;;5049881;28;20454;-78
2022/09/07 09:29:14;;;;;;;10.67;6.13;;;26.90;1.00;;;;;;5051617;28;20551;-79
2022/09/07 09:31:44;;;;;;;17.30;7.53;;;28.00;1.00;;;;;;5058333;28;20540;-80
2022/09/07 09:34:20;;;;;;;10.10;6.30;;;28.70;1.00;;;;;;5050730;28;20510;-79
2022/09/07 09:36:59;;;;;;;10.23;6.30;;;29.40;1.00;;;;;;5006646;28;20489;-82
2022/09/07 09:39:54;;;;;;;;;;;;;;;;;;;;;
2022/09/07 09:42:24;;;;;;;11.20;6.30;;;30.90;1.00;;;;;;5025714;28;36863;-79
2022/09/07 09:44:53;;;;;;;8.23;5.57;;;31.30;1.00;;;;;;5040669;28;20484;-79
2022/09/07 09:47:43;;;;;;;10.00;6.50;;;31.80;1.00;;;;;;5049333;28;20576;-82
2022/09/07 09:50:20;;;;;;;9.30;6.10;;;32.00;1.00;;;;;;5055614;28;20431;-81
2022/09/07 09:52:56;;;;;;;9.70;6.33;;;32.20;1.00;;;;;;5046874;28;20424;-78
2022/09/07 09:55:52;;;;;;;10.10;8.03;;;32.60;1.00;;;;;;5039760;28;21290;-81
2022/09/07 09:58:39;;;;;;;8.80;6.60;;;32.50;1.00;;;;;;5006456;28;20424;-79
2022/09/07 10:01:20;;;;;;;10.60;7.53;;;32.40;1.00;;;;;;5044501;28;20990;-78
2022/09/07 10:03:54;;;;;;;10.73;7.90;;;32.70;1.00;;;;;;5057164;28;20424;-82
2022/09/07 10:06:20;;;;;;;9.63;6.80;;;33.00;1.00;;;;;;5052700;28;20459;-77
2022/09/07 10:08:56;;;;;;;10.60;6.60;;;32.70;1.00;;;;;;5051755;28;20452;-80
2022/09/07 10:11:50;;;;;;;10.03;7.40;;;32.90;1.00;;;;;;5052344;28;21002;-78
2022/09/07 10:14:23;;;;;;;10.70;8.00;;;32.80;1.00;;;;;;5054364;28;20906;-77
2022/09/07 10:16:56;;;;;;;7.83;6.67;;;33.60;1.00;;;;;;5051236;28;20412;-81
2022/09/07 10:19:32;;;;;;;10.70;8.00;;;34.10;1.00;;;;;;5049879;28;20465;-78
2022/09/07 10:22:01;;;;;;;10.53;8.00;;;34.30;1.00;;;;;;5047700;28;20464;-79
2022/09/07 10:24:37;;;;;;;13.17;7.90;;;34.00;1.00;;;;;;5055826;28;20456;-80
2022/09/07 10:27:20;;;;;;;11.60;8.93;;;32.90;1.00;;;;;;5040572;28;20955;-77
2022/09/07 10:29:51;;;;;;;8.80;7.90;;;33.00;1.00;;;;;;5049035;28;20467;-77
2022/09/07 10:32:31;;;;;;;9.50;8.50;;;33.10;1.00;;;;;;5049284;28;20458;-79
2022/09/07 10:35:15;;;;;;;12.47;7.73;;;32.40;1.00;;;;;;5053503;28;20466;-78
2022/09/07 10:37:54;;;;;;;10.27;7.27;;;32.50;1.00;;;;;;5051573;28;20471;-81
2022/09/07 10:40:34;;;;;;;11.00;7.27;;;32.20;1.00;;;;;;5051047;28;20467;-78
2022/09/07 10:43:15;;;;;;;9.70;7.60;;;31.40;1.00;;;;;;5051310;28;20505;-79
2022/09/07 10:46:11;;;;;;;9.83;7.70;;;30.70;1.00;;;;;;5040916;28;20967;-79
2022/09/07 10:48:52;;;;;;;12.40;7.97;;;29.70;1.00;;;;;;5038595;28;20470;-79
2022/09/07 10:51:38;;;;;;;12.83;8.80;;;28.70;1.00;;;;;;5053313;28;20479;-77
2022/09/07 10:54:16;;;;;;;14.07;9.63;;;28.40;1.00;;;;;;5050916;28;20452;-80
2022/09/07 10:56:56;;;;;;;10.60;7.93;;;28.20;1.00;;;;;;5034566;28;20962;-77
2022/09/07 10:59:40;;;;;;;13.80;8.60;;;27.70;1.00;;;;;;5054507;28;20912;-83
2022/09/07 11:02:25;;;;;;;11.63;8.50;;;27.50;1.00;;;;;;5049686;28;20464;-79
2022/09/07 11:05:11;;;;;;;12.70;8.50;;;27.40;1.00;;;;;;5052581;28;20425;-78
2022/09/07 11:08:03;;;;;;;11.67;8.57;;;27.30;1.00;;;;;;5052711;28;20432;-81
2022/09/07 11:10:39;;;;;;;10.63;7.80;;;27.30;1.00;;;;;;5058803;28;20412;-81
2022/09/07 11:13:12;;;;;;;12.20;8.37;;;27.20;1.00;;;;;;5056696;28;20530;-84
2022/09/07 11:15:45;;;;;;;10.97;8.23;;;27.10;1.00;;;;;;5041055;28;20541;-86
2022/09/07 11:18:20;;;;;;;12.80;8.10;;;27.00;1.00;;;;;;5056634;28;20463;-84
2022/09/07 11:20:54;;;;;;;10.60;8.30;;;26.80;1.00;;;;;;5060898;28;20453;-82
2022/09/07 11:23:30;;;;;;;12.10;9.03;;;26.70;1.00;;;;;;5060812;28;20448;-84
2022/09/07 11:26:03;;;;;;;10.60;8.77;;;26.90;1.00;;;;;;5051171;28;20456;-83
2022/09/07 11:28:48;;;;;;;9.73;8.60;;;26.90;1.00;;;;;;5050986;28;20475;-82
2022/09/07 11:31:21;;;;;;;12.20;8.90;;;27.20;1.00;;;;;;5050605;28;20524;-81
2022/09/07 11:33:58;;;;;;;11.03;7.80;;;27.40;1.00;;;;;;5031796;28;20448;-81
2022/09/07 11:36:32;;;;;;;9.93;8.80;;;27.60;1.00;;;;;;5050508;28;20460;-84
2022/09/07 11:39:14;;;;;;;10.73;8.10;;;28.20;1.00;;;;;;5050620;28;21186;-81
2022/09/07 11:41:51;;;;;;;11.47;8.50;;;28.70;1.00;;;;;;5048691;28;20917;-83
2022/09/07 11:44:25;;;;;;;10.37;8.23;;;29.60;1.00;;;;;;5049987;28;20486;-84
2022/09/07 11:46:56;;;;;;;12.20;8.73;;;29.60;1.00;;;;;;5050890;28;20452;-82
2022/09/07 11:49:27;;;;;;;11.07;9.63;;;29.70;1.00;;;;;;5046398;28;20894;-80
2022/09/07 11:51:56;;;;;;;12.40;9.10;;;30.20;1.00;;;;;;5045176;28;20473;-84
2022/09/07 11:54:36;;;;;;;13.37;8.47;;;30.50;1.00;;;;;;5044622;28;20428;-84
2022/09/07 11:57:20;;;;;;;8.97;8.07;;;31.00;1.00;;;;;;5042829;28;20891;-79
2022/09/07 12:00:00;;;;;;;10.30;8.90;;;30.90;1.00;;;;;;5052176;28;20428;-85
2022/09/07 12:02:56;;;;;;;9.80;8.80;;;29.90;1.00;;;;;;5056032;28;20535;-83
2022/09/07 12:05:40;;;;;;;10.70;8.50;;;29.10;1.00;;;;;;5046451;28;20488;-85
2022/09/07 12:08:22;;;;;;;11.50;8.70;;;28.50;1.00;;;;;;5045335;28;20558;-82
2022/09/07 12:11:10;;;;;;;11.33;9.30;;;28.30;1.00;;;;;;5047503;28;20439;-84
2022/09/07 12:13:58;;;;;;;10.33;8.60;;;28.40;1.00;;;;;;5021634;28;20449;-83
2022/09/07 12:16:53;;;;;;;9.97;8.37;;;28.40;1.00;;;;;;5045152;28;20455;-87
2022/09/07 12:19:28;;;;;;;11.70;9.77;;;28.30;1.00;;;;;;5030799;28;20460;-79
2022/09/07 12:21:58;;;;;;;11.73;8.50;;;28.50;1.00;;;;;;5046185;28;20529;-80
2022/09/07 12:24:43;;;;;;;13.63;8.93;;;28.40;1.00;;;;;;5043969;28;20567;-82
2022/09/07 12:27:42;;;;;;;12.67;9.43;;;28.80;1.00;;;;;;5040997;28;20472;-81
2022/09/07 12:30:51;;;;;;;10.57;8.70;;;29.70;1.00;;;;;;4951302;28;20498;-81
2022/09/07 12:33:39;;;;;;;13.77;9.67;;;30.20;1.00;;;;;;5045631;28;20542;-80
2022/09/07 12:37:04;;;;;;;11.77;8.40;;;30.00;1.00;;;;;;5019055;28;21334;-79
2022/09/07 12:39:36;;;;;;;11.70;8.17;;;30.00;1.00;;;;;;5025652;28;20501;-85
2022/09/07 12:42:23;;;;;;;12.77;9.47;;;30.10;1.00;;;;;;5051511;28;20522;-83
2022/09/07 12:45:32;;;;;;;11.20;8.83;;;29.90;1.00;;;;;;5052142;28;20412;-85
2022/09/07 12:48:02;;;;;;;11.93;8.60;;;29.90;1.00;;;;;;5054324;28;20453;-85
2022/09/07 12:53:37;;;;;;;10.20;9.20;;;29.30;1.00;;;;;;5047973;28;21337;-85
2022/09/07 12:56:32;;;;;;;12.40;11.03;;;29.00;1.00;;;;;;5033678;28;20425;-83
2022/09/07 12:59:35;;;;;;;15.23;9.20;;;28.40;1.00;;;;;;5054021;28;20413;-87
2022/09/07 13:02:38;;;;;;;9.80;8.67;;;28.10;1.00;;;;;;5052816;28;20550;-85
2022/09/07 13:05:17;;;;;;;10.50;8.90;;;28.00;1.00;;;;;;5026360;28;21277;-86
2022/09/07 13:08:07;;;;;;;10.83;9.73;;;27.90;1.00;;;;;;5044367;28;20428;-83
2022/09/07 13:10:38;;;;;;;12.53;9.20;;;27.80;1.00;;;;;;5051126;28;20415;-86
2022/09/07 13:13:16;;;;;;;10.70;9.50;;;27.80;1.00;;;;;;5041441;28;20487;-87
2022/09/07 13:15:46;;;;;;;12.40;9.70;;;27.60;1.00;;;;;;5036759;28;20428;-85
2022/09/07 13:18:46;;;;;;;22.03;15.30;;;27.20;1.00;;;;;;5055631;28;20603;-87
2022/09/07 13:21:39;;;;;;;44.93;12.93;;;27.10;1.00;;;;;;5044589;28;20456;-82
2022/09/07 13:24:38;;;;;;;14.20;11.03;;;27.20;1.00;;;;;;5038897;28;20558;-84
2022/09/07 13:27:34;;;;;;;13.60;10.50;;;27.30;1.00;;;;;;5046567;28;20796;-83
2022/09/07 13:30:21;;;;;;;14.57;9.80;;;27.30;1.00;;;;;;5040908;28;20456;-82
2022/09/07 13:32:48;;;;;;;12.67;10.83;;;27.20;1.00;;;;;;5048696;28;20469;-82
2022/09/07 13:35:20;;;;;;;13.30;9.43;;;27.20;1.00;;;;;;5049891;28;20504;-81
2022/09/07 13:37:51;;;;;;;11.13;8.70;;;27.30;1.00;;;;;;5049566;28;20421;-82
2022/09/07 13:40:24;;;;;;;12.40;8.80;;;27.40;1.00;;;;;;5049154;28;20452;-84
2022/09/07 13:42:59;;;;;;;14.60;9.50;;;27.20;1.00;;;;;;5052171;28;20449;-84
2022/09/07 13:45:44;;;;;;;13.20;9.30;;;27.30;1.00;;;;;;5050967;28;20478;-84